Time;durP1;ratioP1;P1;durP2;ratioP2;P2;SDS_P1;SDS_P2;PMS_P1;PMS_P2;Temp;Humidity;BMP_temperature;BMP_pressure;BME280_temperature;BME280_humidity;BME280_pressure;Samples;Min_cycle;Max_cycle;Signal;HPM_P1;HPM_P2
2022/04/25 00:00:07;;;;;;;5.07;4.67;;;;;;;8.18;100.00;99328.59;5021177;28;20595;-53
2022/04/25 00:02:32;;;;;;;5.40;5.00;;;;;;;8.21;100.00;99338.88;5010916;28;20275;-53
2022/04/25 00:04:57;;;;;;;5.90;5.50;;;;;;;8.25;100.00;99340.53;5018440;28;20281;-52
2022/04/25 00:07:23;;;;;;;5.23;4.83;;;;;;;8.27;100.00;99343.09;5015991;28;20196;-52
2022/04/25 00:09:49;;;;;;;5.67;5.27;;;;;;;8.29;100.00;99337.06;5013333;28;20299;-52
2022/04/25 00:12:14;;;;;;;5.80;5.40;;;;;;;8.33;100.00;99337.84;5021011;28;20202;-52
2022/04/25 00:14:39;;;;;;;6.07;5.57;;;;;;;8.36;100.00;99346.38;5014955;28;20194;-52
2022/04/25 00:17:05;;;;;;;5.47;5.07;;;;;;;8.35;100.00;99339.53;5009573;28;20195;-52
2022/04/25 00:19:30;;;;;;;6.23;5.73;;;;;;;8.33;100.00;99343.00;5011773;28;20223;-53
2022/04/25 00:21:56;;;;;;;6.17;5.67;;;;;;;8.30;100.00;99340.47;5018188;28;20271;-53
2022/04/25 00:24:21;;;;;;;5.87;5.37;;;;;;;8.28;100.00;99345.66;5019641;28;20233;-52
2022/04/25 00:26:46;;;;;;;5.37;4.97;;;;;;;8.26;100.00;99344.84;5016401;28;20626;-53
2022/04/25 00:29:12;;;;;;;5.37;4.93;;;;;;;8.23;100.00;99345.75;5014938;28;20282;-53
2022/04/25 00:31:39;;;;;;;5.50;5.10;;;;;;;8.19;100.00;99345.78;5022674;28;20222;-53
2022/04/25 00:34:05;;;;;;;5.80;5.40;;;;;;;8.16;100.00;99351.84;5027630;28;20291;-53
2022/04/25 00:36:30;;;;;;;5.60;5.10;;;;;;;8.14;100.00;99352.75;5026620;28;20223;-53
2022/04/25 00:38:55;;;;;;;5.50;5.10;;;;;;;8.12;100.00;99350.16;5009722;28;20191;-53
2022/04/25 00:41:21;;;;;;;5.67;5.27;;;;;;;8.11;100.00;99351.03;5016120;28;20615;-52
2022/04/25 00:43:46;;;;;;;5.83;5.33;;;;;;;8.08;100.00;99348.53;5016748;28;20322;-53
2022/04/25 00:46:20;;;;;;;5.37;4.93;;;;;;;8.07;100.00;99350.25;5019991;28;20218;-53
2022/04/25 00:48:46;;;;;;;5.13;4.73;;;;;;;8.08;100.00;99353.69;5012757;28;20206;-53
2022/04/25 00:51:11;;;;;;;5.43;4.93;;;;;;;8.10;100.00;99349.34;5013280;28;20208;-52
2022/04/25 00:53:37;;;;;;;5.30;4.80;;;;;;;8.08;100.00;99346.78;5013861;28;20379;-54
2022/04/25 00:56:03;;;;;;;5.27;4.87;;;;;;;8.05;100.00;99348.56;5012145;28;20195;-52
2022/04/25 00:58:29;;;;;;;5.30;4.90;;;;;;;8.08;100.00;99349.38;5017403;28;20205;-52
2022/04/25 01:00:54;;;;;;;5.63;5.17;;;;;;;8.15;100.00;99341.56;5016297;28;20302;-52
2022/04/25 01:03:19;;;;;;;5.43;5.03;;;;;;;8.23;100.00;99352.59;5012193;28;20190;-52
2022/04/25 01:05:45;;;;;;;5.70;5.27;;;;;;;8.29;100.00;99347.38;5017927;28;20256;-52
2022/04/25 01:08:10;;;;;;;5.17;4.67;;;;;;;8.34;100.00;99347.28;5013719;28;20314;-52
2022/04/25 01:10:36;;;;;;;5.23;4.83;;;;;;;8.39;100.00;99348.09;5017177;28;20228;-51
2022/04/25 01:13:01;;;;;;;6.07;5.57;;;;;;;8.44;100.00;99353.16;5016444;28;20225;-51
2022/04/25 01:15:28;;;;;;;5.43;5.03;;;;;;;8.43;100.00;99349.72;5022277;28;20255;-51
2022/04/25 01:17:54;;;;;;;6.00;5.50;;;;;;;8.44;100.00;99348.00;5016966;28;20196;-52
2022/04/25 01:20:19;;;;;;;5.20;4.80;;;;;;;8.46;100.00;99349.69;5021657;28;20208;-52
2022/04/25 01:22:53;;;;;;;5.90;5.40;;;;;;;8.50;100.00;99353.97;5017384;28;20248;-52
2022/04/25 01:28:03;;;;;;;7.93;7.23;;;;;;;8.57;100.00;99356.44;5016827;28;20205;-52
2022/04/25 01:30:32;;;;;;;7.43;6.83;;;;;;;8.63;100.00;99356.34;5021139;28;20252;-51
2022/04/25 01:32:58;;;;;;;6.77;6.27;;;;;;;8.67;100.00;99355.41;5014335;28;20191;-51
2022/04/25 01:35:23;;;;;;;7.63;7.03;;;;;;;8.71;100.00;99359.63;5019389;28;20191;-51
2022/04/25 01:37:49;;;;;;;7.13;6.53;;;;;;;8.72;100.00;99358.75;5011627;28;21417;-51
2022/04/25 01:40:14;;;;;;;6.23;5.73;;;;;;;8.73;100.00;99355.31;5019888;28;20249;-52
2022/04/25 01:42:40;;;;;;;6.17;5.67;;;;;;;8.74;100.00;99349.28;5023305;28;20196;-51
2022/04/25 01:45:05;;;;;;;6.37;5.77;;;;;;;8.71;100.00;99348.47;5023683;28;20202;-52
2022/04/25 01:47:31;;;;;;;6.00;5.60;;;;;;;8.64;100.00;99356.31;5020381;28;20203;-53
2022/04/25 01:49:56;;;;;;;5.47;4.97;;;;;;;8.56;100.00;99353.00;5015892;28;20596;-53
2022/04/25 01:52:28;;;;;;;5.37;4.97;;;;;;;8.53;100.00;99355.63;5023442;28;20642;-52
2022/04/25 01:54:53;;;;;;;5.03;4.63;;;;;;;8.47;100.00;99347.97;5018450;28;20190;-53
2022/04/25 01:57:19;;;;;;;5.27;4.87;;;;;;;8.41;100.00;99351.47;5022746;28;20561;-53
2022/04/25 01:59:45;;;;;;;5.33;4.93;;;;;;;8.38;100.00;99361.84;5020624;28;20908;-52
2022/04/25 02:02:11;;;;;;;5.53;5.13;;;;;;;8.34;100.00;99357.59;5019147;28;20273;-53
2022/04/25 02:04:38;;;;;;;6.17;5.73;;;;;;;8.34;100.00;99355.88;5018825;28;20201;-52
2022/04/25 02:07:04;;;;;;;6.20;5.70;;;;;;;8.37;100.00;99357.56;5016805;28;20276;-52
2022/04/25 02:09:29;;;;;;;5.67;5.27;;;;;;;8.41;100.00;99350.63;5023354;28;20268;-52
2022/04/25 02:11:55;;;;;;;5.33;4.93;;;;;;;8.47;100.00;99358.28;5020279;28;20627;-52
2022/04/25 02:14:20;;;;;;;5.40;4.90;;;;;;;8.51;100.00;99363.41;5021477;28;20657;-51
2022/04/25 02:16:46;;;;;;;5.83;5.23;;;;;;;8.57;100.00;99369.31;5019365;28;20203;-53
2022/04/25 02:19:12;;;;;;;6.03;5.53;;;;;;;8.62;100.00;99368.38;5023642;28;20561;-53
2022/04/25 02:21:37;;;;;;;7.90;7.07;;;;;;;8.68;100.00;99367.44;5025264;28;20198;-53
2022/04/25 02:24:03;;;;;;;8.13;6.80;;;;;;;8.73;100.00;99368.19;5022097;28;20192;-52
2022/04/25 02:26:28;;;;;;;9.07;8.13;;;;;;;8.78;100.00;99376.72;5020337;28;20844;-51
2022/04/25 02:28:54;;;;;;;9.27;8.47;;;;;;;8.83;100.00;99369.78;5021627;28;21585;-52
2022/04/25 02:31:20;;;;;;;10.43;9.17;;;;;;;8.88;100.00;99376.56;5025719;28;20614;-52
2022/04/25 02:33:45;;;;;;;11.77;10.10;;;;;;;8.93;100.00;99379.94;5016291;28;20277;-52
2022/04/25 02:36:12;;;;;;;12.33;10.70;;;;;;;8.97;100.00;99382.44;5017585;28;20319;-52
2022/04/25 02:38:39;;;;;;;12.30;11.03;;;;;;;9.03;100.00;99381.47;5016632;28;20192;-53
2022/04/25 02:41:05;;;;;;;13.93;12.37;;;;;;;9.06;100.00;99385.75;5017022;28;20196;-53
2022/04/25 02:43:42;;;;;;;13.43;12.20;;;;;;;9.10;100.00;99384.78;5023069;28;20245;-53
2022/04/25 02:46:10;;;;;;;14.77;13.43;;;;;;;9.10;100.00;99377.91;5021576;28;20538;-52
2022/04/25 02:48:37;;;;;;;15.80;14.17;;;;;;;9.13;100.00;99385.63;5019290;28;20219;-53
2022/04/25 02:51:03;;;;;;;15.23;13.83;;;;;;;9.15;100.00;99378.66;5022238;28;20309;-53
2022/04/25 02:53:29;;;;;;;15.90;14.50;;;;;;;9.18;100.00;99377.78;5019044;28;20285;-53
2022/04/25 02:55:54;;;;;;;14.87;13.57;;;;;;;9.21;100.00;99380.31;5018797;28;20425;-51
2022/04/25 02:58:20;;;;;;;14.10;12.83;;;;;;;9.23;100.00;99378.53;5018389;28;20211;-51
2022/04/25 03:00:47;;;;;;;13.07;11.87;;;;;;;9.27;100.00;99381.94;5016737;28;20207;-51
2022/04/25 03:03:17;;;;;;;12.03;11.03;;;;;;;9.29;100.00;99380.19;5019842;28;20650;-51
2022/04/25 03:05:44;;;;;;;12.17;11.07;;;;;;;9.31;100.00;99380.97;5021615;28;20191;-50
2022/04/25 03:08:11;;;;;;;11.27;10.23;;;;;;;9.33;100.00;99388.72;5021790;28;20770;-51
2022/04/25 03:10:37;;;;;;;12.53;11.43;;;;;;;9.36;100.00;99391.25;5011506;28;20219;-51
2022/04/25 03:13:06;;;;;;;13.60;12.40;;;;;;;9.38;100.00;99392.91;5020382;28;20199;-51
2022/04/25 03:15:38;;;;;;;14.07;12.70;;;;;;;9.40;100.00;99387.69;5027023;28;20191;-51
2022/04/25 03:18:05;;;;;;;12.80;11.70;;;;;;;9.42;100.00;99383.34;5016604;28;20191;-51
2022/04/25 03:20:31;;;;;;;12.13;10.93;;;;;;;9.42;100.00;99378.19;5023817;28;20291;-51
2022/04/25 03:22:58;;;;;;;11.07;10.07;;;;;;;9.41;100.00;99381.66;5015427;28;20464;-51
2022/04/25 03:25:23;;;;;;;11.30;10.17;;;;;;;9.41;100.00;99382.53;5018011;28;20554;-51
2022/04/25 03:27:49;;;;;;;10.97;9.87;;;;;;;9.40;100.00;99390.28;5011496;28;20220;-51
2022/04/25 03:30:14;;;;;;;11.63;10.30;;;;;;;9.39;100.00;99380.81;5019359;28;20683;-51
2022/04/25 03:32:46;;;;;;;9.50;8.60;;;;;;;9.39;100.00;99379.13;5015675;28;20249;-53
2022/04/25 03:35:13;;;;;;;10.83;9.73;;;;;;;9.39;100.00;99378.25;5014474;28;20879;-51
2022/04/25 03:37:39;;;;;;;11.53;10.37;;;;;;;9.38;100.00;99380.00;5014692;28;20191;-51
2022/04/25 03:40:05;;;;;;;10.90;9.80;;;;;;;9.36;100.00;99371.41;5011898;28;20736;-51
2022/04/25 03:42:31;;;;;;;11.40;10.30;;;;;;;9.33;100.00;99376.63;5014693;28;20361;-52
2022/04/25 03:44:57;;;;;;;11.00;10.00;;;;;;;9.29;100.00;99378.44;5016571;28;20261;-50
2022/04/25 03:47:23;;;;;;;10.93;9.87;;;;;;;9.27;100.00;99379.34;5018620;28;20190;-50
2022/04/25 03:49:48;;;;;;;10.83;9.70;;;;;;;9.25;100.00;99375.94;5022849;28;20647;-50
2022/04/25 03:52:14;;;;;;;11.13;10.07;;;;;;;9.23;100.00;99385.44;5011959;28;20195;-51
2022/04/25 03:57:26;;;;;;;10.70;9.67;;;;;;;9.24;100.00;99387.97;5018228;28;20317;-51
2022/04/25 03:59:51;;;;;;;10.97;9.97;;;;;;;9.25;100.00;99387.09;5014372;28;20302;-50
2022/04/25 04:02:17;;;;;;;10.07;9.17;;;;;;;9.24;100.00;99380.22;5025503;28;20283;-51
2022/04/25 04:04:42;;;;;;;10.07;9.17;;;;;;;9.25;100.00;99386.25;5025247;28;20191;-51
2022/04/25 04:07:08;;;;;;;10.47;9.47;;;;;;;9.25;100.00;99388.84;5026547;28;20656;-51
2022/04/25 04:09:46;;;;;;;10.43;9.50;;;;;;;9.27;100.00;99397.41;5025879;28;20744;-51
2022/04/25 04:12:15;;;;;;;10.47;9.50;;;;;;;9.30;100.00;99398.22;5027534;28;20186;-51
2022/04/25 04:14:41;;;;;;;11.23;10.17;;;;;;;9.31;100.00;99386.13;5029028;28;20246;-51
2022/04/25 04:17:07;;;;;;;10.23;9.33;;;;;;;9.33;100.00;99388.72;5026077;28;20279;-51
2022/04/25 04:19:37;;;;;;;11.13;10.03;;;;;;;9.33;100.00;99386.13;5021351;28;20211;-51
2022/04/25 04:22:03;;;;;;;11.67;10.57;;;;;;;9.34;100.00;99399.00;5022558;28;20187;-52
2022/04/25 04:24:31;;;;;;;11.23;10.13;;;;;;;9.34;100.00;99401.56;5020261;28;20196;-51
2022/04/25 04:27:06;;;;;;;11.67;10.57;;;;;;;9.35;100.00;99405.03;5019382;28;20199;-52
2022/04/25 04:29:33;;;;;;;11.73;10.63;;;;;;;9.35;100.00;99403.28;5012866;28;20676;-52
2022/04/25 04:32:01;;;;;;;10.17;9.20;;;;;;;9.36;100.00;99414.47;5026501;28;20207;-52
2022/04/25 04:34:26;;;;;;;12.00;10.80;;;;;;;9.36;100.00;99415.31;5019104;28;20490;-51
2022/04/25 04:36:52;;;;;;;11.57;10.47;;;;;;;9.37;100.00;99421.34;5017912;28;20180;-51
2022/04/25 04:39:18;;;;;;;13.17;11.87;;;;;;;9.38;100.00;99420.44;5012256;28;20251;-51
2022/04/25 04:41:44;;;;;;;11.50;10.10;;;;;;;9.38;100.00;99426.47;5023527;28;20257;-51
2022/04/25 04:44:09;;;;;;;13.57;10.27;;;;;;;9.38;100.00;99421.31;5022716;28;20191;-52
2022/04/25 04:46:35;;;;;;;12.47;10.47;;;;;;;9.41;100.00;99423.84;5022779;28;20238;-51
2022/04/25 04:49:00;;;;;;;12.17;10.90;;;;;;;9.42;100.00;99422.09;5019456;28;20901;-52
2022/04/25 04:51:25;;;;;;;12.53;11.33;;;;;;;9.43;100.00;99432.41;5027385;28;20215;-51
2022/04/25 04:53:51;;;;;;;13.13;11.93;;;;;;;9.43;100.00;99437.59;5019646;28;20301;-52
2022/04/25 04:56:16;;;;;;;13.23;12.00;;;;;;;9.44;100.00;99431.53;5023362;28;20191;-52
2022/04/25 04:58:41;;;;;;;11.90;10.90;;;;;;;9.46;100.00;99436.66;5025207;28;20218;-52
2022/04/25 05:01:07;;;;;;;12.17;10.97;;;;;;;9.47;100.00;99443.53;5018916;28;20343;-51
2022/04/25 05:03:34;;;;;;;12.27;11.23;;;;;;;9.49;100.00;99440.91;5011279;28;20200;-50
2022/04/25 05:05:59;;;;;;;14.73;13.40;;;;;;;9.46;100.00;99437.50;5013595;28;20246;-51
2022/04/25 05:08:24;;;;;;;14.80;13.30;;;;;;;9.46;100.00;99442.66;5017136;28;20594;-51
2022/04/25 05:10:50;;;;;;;13.73;12.53;;;;;;;9.46;100.00;99440.09;5011067;28;20279;-51
2022/04/25 05:13:16;;;;;;;15.50;14.00;;;;;;;9.49;100.00;99433.16;5019705;28;20192;-51
2022/04/25 05:15:42;;;;;;;12.90;11.80;;;;;;;9.54;100.00;99439.09;5012147;28;20311;-52
2022/04/25 05:18:08;;;;;;;13.90;12.67;;;;;;;9.60;100.00;99449.34;5016203;28;20195;-52
2022/04/25 05:20:33;;;;;;;14.40;13.10;;;;;;;9.60;100.00;99444.19;5027427;28;20573;-52
2022/04/25 05:22:59;;;;;;;15.30;13.93;;;;;;;9.62;100.00;99439.81;5032508;28;20203;-52
2022/04/25 05:25:25;;;;;;;13.90;12.60;;;;;;;9.63;100.00;99436.34;5029447;28;20191;-52
2022/04/25 05:27:53;;;;;;;14.53;13.23;;;;;;;9.65;100.00;99438.91;5027269;28;20266;-52
2022/04/25 05:30:20;;;;;;;15.13;13.73;;;;;;;9.66;100.00;99446.63;5026204;28;20877;-53
2022/04/25 05:32:47;;;;;;;15.87;14.30;;;;;;;9.67;100.00;99453.50;5018890;28;20191;-53
2022/04/25 05:35:16;;;;;;;15.87;14.37;;;;;;;9.68;100.00;99449.19;5027199;28;20191;-53
2022/04/25 05:37:43;;;;;;;16.90;15.40;;;;;;;9.68;100.00;99455.22;5024281;28;20620;-58
2022/04/25 05:40:09;;;;;;;17.13;15.53;;;;;;;9.70;100.00;99468.94;5006647;28;20202;-53
2022/04/25 05:42:35;;;;;;;19.63;17.80;;;;;;;9.72;100.00;99463.75;5024310;28;20199;-53
2022/04/25 05:45:03;;;;;;;18.90;17.13;;;;;;;9.73;100.00;99468.91;5019933;28;20187;-53
2022/04/25 05:47:28;;;;;;;18.43;16.73;;;;;;;9.78;100.00;99461.06;5024269;28;20269;-53
2022/04/25 05:52:38;;;;;;;21.23;19.13;;;;;;;9.85;100.00;99466.94;5026175;28;20191;-54
2022/04/25 05:55:03;;;;;;;19.40;17.50;;;;;;;9.88;100.00;99472.06;5025667;28;20183;-52
2022/04/25 05:57:29;;;;;;;18.87;17.07;;;;;;;9.96;100.00;99482.25;5028300;28;20701;-53
2022/04/25 05:59:54;;;;;;;18.10;16.40;;;;;;;10.00;100.00;99482.16;5029293;28;20317;-52
2022/04/25 06:02:20;;;;;;;19.07;17.27;;;;;;;10.04;100.00;99488.13;5022494;28;20223;-52
2022/04/25 06:04:45;;;;;;;21.33;19.23;;;;;;;10.06;100.00;99489.78;5026771;28;20192;-52
2022/04/25 06:07:11;;;;;;;21.30;19.20;;;;;;;10.06;100.00;99494.94;5027324;28;20215;-52
2022/04/25 06:09:37;;;;;;;22.57;20.27;;;;;;;10.06;100.00;99499.28;5030594;28;20540;-52
2022/04/25 06:12:02;;;;;;;22.13;19.87;;;;;;;10.06;100.00;99497.53;5024029;28;20644;-53
2022/04/25 06:14:30;;;;;;;23.47;21.10;;;;;;;10.09;100.00;99488.88;5028945;28;20187;-53
2022/04/25 06:16:56;;;;;;;21.17;19.00;;;;;;;10.14;100.00;99496.56;5023404;28;20176;-53
2022/04/25 06:19:21;;;;;;;20.40;18.30;;;;;;;10.21;100.00;99496.41;5014352;28;20717;-53
2022/04/25 06:21:47;;;;;;;19.30;17.30;;;;;;;10.28;100.00;99497.13;5025625;28;20776;-53
2022/04/25 06:24:12;;;;;;;18.27;16.50;;;;;;;10.31;100.00;99499.66;5021849;28;20192;-53
2022/04/25 06:26:38;;;;;;;19.43;16.97;;;;;;;10.32;100.00;99508.25;5028292;28;20222;-53
2022/04/25 06:29:04;;;;;;;19.93;17.67;;;;;;;10.30;100.00;99510.88;5013499;28;20651;-53
2022/04/25 06:31:29;;;;;;;18.13;16.37;;;;;;;10.29;100.00;99509.16;5025689;28;20218;-52
2022/04/25 06:33:55;;;;;;;18.10;16.20;;;;;;;10.32;100.00;99516.00;5017828;28;20612;-53
2022/04/25 06:36:20;;;;;;;17.37;15.67;;;;;;;10.35;100.00;99510.78;5017978;28;20188;-54
2022/04/25 06:38:46;;;;;;;18.57;16.83;;;;;;;10.39;100.00;99515.03;5011679;28;20269;-53
2022/04/25 06:41:12;;;;;;;18.27;16.57;;;;;;;10.43;100.00;99518.41;5016634;28;21002;-53
2022/04/25 06:43:37;;;;;;;18.17;16.47;;;;;;;10.48;100.00;99504.50;5019155;28;20245;-53
2022/04/25 06:46:04;;;;;;;16.50;15.00;;;;;;;10.61;100.00;99510.28;5018972;28;20184;-52
2022/04/25 06:48:30;;;;;;;17.20;15.60;;;;;;;10.73;100.00;99500.53;5019310;28;20187;-52
2022/04/25 06:50:55;;;;;;;19.40;17.40;;;;;;;10.86;100.00;99504.53;5020959;28;20212;-52
2022/04/25 06:53:21;;;;;;;18.63;16.83;;;;;;;10.97;100.00;99496.53;5017218;28;20192;-52
2022/04/25 06:55:46;;;;;;;19.50;17.60;;;;;;;11.13;100.00;99497.00;5013740;28;20192;-53
2022/04/25 06:58:12;;;;;;;19.00;17.20;;;;;;;11.28;100.00;99508.75;5014110;28;20199;-52
2022/04/25 07:00:38;;;;;;;17.20;15.60;;;;;;;11.44;100.00;99502.31;5020148;28;20215;-52
2022/04/25 07:03:04;;;;;;;17.43;15.83;;;;;;;11.56;100.00;99508.91;5019406;28;20194;-52
2022/04/25 07:05:30;;;;;;;15.87;14.40;;;;;;;11.62;100.00;99507.91;5017728;28;20192;-52
2022/04/25 07:07:55;;;;;;;17.20;15.50;;;;;;;11.67;100.00;99510.38;5015304;28;20243;-52
2022/04/25 07:10:21;;;;;;;16.77;15.03;;;;;;;11.69;100.00;99511.19;5015792;28;20223;-52
2022/04/25 07:12:47;;;;;;;16.07;14.57;;;;;;;11.70;100.00;99511.13;5016889;28;20254;-52
2022/04/25 07:15:12;;;;;;;16.80;15.20;;;;;;;11.71;100.00;99514.59;5019515;28;20306;-53
2022/04/25 07:17:37;;;;;;;16.73;15.13;;;;;;;11.79;100.00;99510.03;5016099;28;20195;-52
2022/04/25 07:20:03;;;;;;;16.33;14.83;;;;;;;11.92;100.00;99520.94;5020399;28;20211;-52
2022/04/25 07:30:41;;;;;;;14.57;13.27;;;;;;;12.34;100.00;99525.00;5019977;28;20318;-52
2022/04/25 07:33:06;;;;;;;14.37;13.03;;;;;;;12.36;100.00;99515.44;5015502;28;20196;-52
2022/04/25 07:35:31;;;;;;;15.10;13.80;;;;;;;12.37;100.00;99522.31;5020338;28;20975;-53
2022/04/25 07:37:58;;;;;;;12.97;11.77;;;;;;;12.42;100.00;99524.78;5014893;28;20643;-52
2022/04/25 07:40:24;;;;;;;13.03;11.87;;;;;;;12.54;100.00;99521.84;5022489;28;20278;-53
2022/04/25 07:42:49;;;;;;;12.90;11.70;;;;;;;12.70;100.00;99518.81;5020381;28;20586;-53
2022/04/25 07:45:14;;;;;;;12.43;11.33;;;;;;;12.90;100.00;99519.03;5024613;28;20234;-53
2022/04/25 07:47:43;;;;;;;11.47;10.47;;;;;;;13.11;100.00;99520.09;5025497;28;20179;-51
2022/04/25 07:50:12;;;;;;;11.90;10.80;;;;;;;13.32;100.00;99516.84;5019052;28;20288;-53
2022/04/25 07:52:38;;;;;;;12.07;10.97;;;;;;;13.41;100.00;99522.63;5026703;28;20205;-53
2022/04/25 07:55:05;;;;;;;11.87;10.87;;;;;;;13.47;100.00;99523.34;5025530;28;20512;-53
2022/04/25 07:57:30;;;;;;;12.63;11.53;;;;;;;13.47;100.00;99523.34;5020562;28;20191;-52
2022/04/25 07:59:59;;;;;;;12.47;11.37;;;;;;;13.44;100.00;99532.09;5025038;28;20215;-53
2022/04/25 08:02:24;;;;;;;13.23;11.93;;;;;;;13.38;100.00;99533.13;5021878;28;20241;-53
2022/04/25 08:04:50;;;;;;;13.50;12.30;;;;;;;13.25;100.00;99539.59;5023778;28;21091;-53
2022/04/25 08:07:16;;;;;;;14.07;12.77;;;;;;;13.19;100.00;99545.84;5014066;28;20225;-53
2022/04/25 08:09:42;;;;;;;14.23;12.93;;;;;;;13.03;100.00;99542.88;5018511;28;20209;-53
2022/04/25 08:20:22;;;;;;;12.57;11.43;;;;;;;12.80;100.00;99560.00;5014345;28;20210;-53
2022/04/25 08:22:47;;;;;;;12.37;11.27;;;;;;;12.95;100.00;99563.03;5013662;28;20353;-52
2022/04/25 08:25:13;;;;;;;12.63;11.53;;;;;;;13.10;100.00;99559.97;5010868;28;20205;-52
2022/04/25 08:27:38;;;;;;;12.87;11.67;;;;;;;13.26;100.00;99555.16;5015335;28;20276;-52
2022/04/25 08:30:05;;;;;;;13.77;12.53;;;;;;;13.39;100.00;99563.38;5016573;28;20212;-51
2022/04/25 08:32:33;;;;;;;14.43;13.07;;;;;;;13.45;100.00;99562.41;5027308;28;20199;-52
2022/04/25 08:35:02;;;;;;;13.17;11.97;;;;;;;13.54;100.00;99563.81;5038222;28;20256;-53
2022/04/25 08:37:28;;;;;;;13.20;12.03;;;;;;;13.63;100.00;99563.53;5015354;28;20250;-53
2022/04/25 08:39:53;;;;;;;13.03;11.83;;;;;;;13.68;100.00;99571.16;5017817;28;20797;-53
2022/04/25 08:42:20;;;;;;;12.47;11.47;;;;;;;13.70;100.00;99570.22;5018781;28;20277;-52
2022/04/25 08:44:49;;;;;;;12.87;11.73;;;;;;;13.69;100.00;99571.09;5015833;28;20277;-52
2022/04/25 08:47:15;;;;;;;14.70;13.50;;;;;;;13.68;100.00;99569.44;5019841;28;20582;-53
2022/04/25 08:49:41;;;;;;;14.13;12.87;;;;;;;13.65;100.00;99572.13;5018416;28;20218;-53
2022/04/25 08:52:08;;;;;;;14.10;12.90;;;;;;;13.62;100.00;99560.97;5020704;28;20212;-52
2022/04/25 08:54:35;;;;;;;12.90;11.80;;;;;;;13.64;100.00;99562.63;5026108;28;20205;-52
2022/04/25 08:57:02;;;;;;;14.53;13.23;;;;;;;13.68;100.00;99553.84;5020193;28;20245;-52
2022/04/25 08:59:30;;;;;;;15.13;13.83;;;;;;;13.77;100.00;99544.84;5022421;28;20215;-53
2022/04/25 09:01:56;;;;;;;15.27;13.97;;;;;;;13.88;100.00;99552.28;5028954;28;20191;-52
2022/04/25 09:04:21;;;;;;;14.80;13.53;;;;;;;14.10;100.00;99554.97;5014689;28;20196;-53
2022/04/25 09:06:48;;;;;;;16.67;15.13;;;;;;;14.45;100.00;99547.66;5015657;28;20201;-53
2022/04/25 09:09:14;;;;;;;15.60;14.30;;;;;;;14.92;100.00;99546.78;5014879;28;20283;-53
2022/04/25 09:14:39;;;;;;;14.23;12.93;;;;;;;15.88;100.00;99549.94;5000666;28;21052;-53
2022/04/25 09:17:05;;;;;;;12.43;11.40;;;;;;;16.18;100.00;99551.25;5017438;28;20246;-53
2022/04/25 09:19:31;;;;;;;11.40;10.40;;;;;;;16.35;100.00;99545.28;5015000;28;20302;-53
2022/04/25 09:21:56;;;;;;;10.90;10.00;;;;;;;16.42;100.00;99551.94;5014630;28;20277;-53
2022/04/25 09:24:26;;;;;;;9.70;8.90;;;;;;;16.43;100.00;99559.69;5015493;28;20192;-50
2022/04/25 09:27:07;;;;;;;9.40;8.67;;;;;;;16.41;100.00;99553.69;5018091;28;20210;-53
2022/04/25 09:29:33;;;;;;;8.70;8.00;;;;;;;16.37;100.00;99559.97;5019585;28;20204;-53
2022/04/25 09:31:59;;;;;;;9.07;8.27;;;;;;;16.40;100.00;99557.25;5015533;28;20269;-53
2022/04/25 09:37:08;;;;;;;11.17;10.27;;;;;;;16.78;100.00;99572.09;5015157;28;20427;-53
2022/04/25 09:39:34;;;;;;;11.00;10.10;;;;;;;16.80;100.00;99575.44;5019451;28;20218;-50
2022/04/25 09:42:00;;;;;;;11.07;10.27;;;;;;;16.98;97.94;99579.03;5020807;28;20185;-53
2022/04/25 09:44:30;;;;;;;10.97;10.07;;;;;;;17.04;98.68;99570.03;5025641;28;20203;-53
2022/04/25 09:46:56;;;;;;;11.33;10.33;;;;;;;17.18;97.58;99569.38;5024311;28;20216;-52
2022/04/25 09:49:21;;;;;;;10.30;9.43;;;;;;;17.27;96.12;99574.16;5014261;28;20291;-53
2022/04/25 09:52:05;;;;;;;11.53;10.63;;;;;;;17.25;93.37;99583.84;5017870;28;20252;-52
2022/04/25 09:54:30;;;;;;;10.53;9.67;;;;;;;17.10;95.46;99592.44;5019177;28;20224;-53
2022/04/25 09:56:56;;;;;;;10.07;9.27;;;;;;;16.99;95.71;99585.09;5020005;28;20648;-52
2022/04/25 09:59:22;;;;;;;12.33;11.23;;;;;;;16.95;95.84;99596.59;5011333;28;20733;-54
2022/04/25 10:02:05;;;;;;;11.90;11.00;;;;;;;16.86;96.55;99600.47;5012462;28;20655;-53
2022/04/25 10:04:36;;;;;;;11.73;10.83;;;;;;;16.53;97.12;99601.09;5012761;28;20188;-53
2022/04/25 10:07:05;;;;;;;11.23;10.33;;;;;;;16.20;99.82;99599.03;5014292;28;20226;-53
2022/04/25 10:09:32;;;;;;;11.17;10.27;;;;;;;16.00;100.00;99613.78;5017135;28;20655;-52
2022/04/25 10:12:00;;;;;;;11.50;10.60;;;;;;;15.72;100.00;99608.84;5018588;28;20391;-53
2022/04/25 10:14:27;;;;;;;11.60;10.60;;;;;;;15.46;100.00;99614.22;5011155;28;20291;-53
2022/04/25 10:16:54;;;;;;;12.07;11.07;;;;;;;15.36;100.00;99602.44;5012682;28;20263;-53
2022/04/25 10:19:21;;;;;;;11.47;10.47;;;;;;;15.24;100.00;99607.22;5012273;28;20540;-53
2022/04/25 10:21:47;;;;;;;12.93;11.83;;;;;;;15.10;100.00;99609.53;5014053;28;20215;-53
2022/04/25 10:24:18;;;;;;;12.30;11.30;;;;;;;15.07;100.00;99609.63;5012297;28;20234;-53
2022/04/25 10:26:44;;;;;;;12.47;11.47;;;;;;;14.92;100.00;99614.53;5017131;28;20477;-53
2022/04/25 10:29:13;;;;;;;12.80;11.80;;;;;;;14.89;100.00;99613.81;5012267;28;20206;-53
2022/04/25 10:31:42;;;;;;;12.43;11.43;;;;;;;14.87;100.00;99624.28;5017724;28;20668;-53
2022/04/25 10:34:09;;;;;;;12.20;11.20;;;;;;;14.86;100.00;99620.00;5014945;28;20214;-53
2022/04/25 10:36:37;;;;;;;12.53;11.50;;;;;;;14.94;100.00;99622.31;5011613;28;20199;-53
2022/04/25 10:39:23;;;;;;;12.13;11.13;;;;;;;15.04;100.00;99628.03;5008516;28;20201;-53
2022/04/25 10:44:42;;;;;;;10.80;10.00;;;;;;;15.24;100.00;99622.03;5023646;28;20203;-53
2022/04/25 10:47:11;;;;;;;10.57;9.67;;;;;;;15.31;100.00;99614.81;5016886;28;20642;-53
2022/04/25 10:49:37;;;;;;;10.67;9.87;;;;;;;15.41;100.00;99623.97;5014270;28;20312;-54
2022/04/25 10:52:04;;;;;;;9.77;9.00;;;;;;;15.57;100.00;99623.34;5019185;28;20211;-53
2022/04/25 10:54:51;;;;;;;9.97;9.17;;;;;;;15.86;100.00;99622.22;5017773;28;20204;-53
2022/04/25 10:57:17;;;;;;;9.13;8.43;;;;;;;15.99;99.47;99612.94;5012468;28;20249;-53
2022/04/25 10:59:52;;;;;;;9.00;8.30;;;;;;;16.23;99.00;99614.56;5018519;28;20329;-54
2022/04/25 11:02:29;;;;;;;10.17;9.37;;;;;;;16.27;95.11;99614.38;5018864;28;20218;-51
2022/04/25 11:05:10;;;;;;;10.27;9.47;;;;;;;16.22;95.57;99611.09;5015045;28;20191;-52
2022/04/25 11:07:37;;;;;;;10.73;9.87;;;;;;;16.38;95.42;99613.03;5015473;28;20270;-51
2022/04/25 11:10:03;;;;;;;9.30;8.60;;;;;;;16.62;94.87;99611.09;5014460;28;20224;-51
2022/04/25 11:12:57;;;;;;;10.30;9.40;;;;;;;16.48;93.41;99610.88;5013718;28;20191;-52
2022/04/25 11:15:42;;;;;;;9.70;8.80;;;;;;;16.38;94.09;99608.69;5006856;28;20302;-51
2022/04/25 11:18:27;;;;;;;9.07;8.37;;;;;;;16.16;95.58;99608.78;5015943;28;20192;-51
2022/04/25 11:21:16;;;;;;;8.43;7.73;;;;;;;16.18;96.83;99606.94;5014184;28;20206;-51
2022/04/25 11:23:44;;;;;;;7.63;7.03;;;;;;;16.28;97.07;99607.38;5016444;28;20199;-51
2022/04/25 11:26:21;;;;;;;7.17;6.67;;;;;;;16.37;97.55;99609.59;5015951;28;20689;-52
2022/04/25 11:29:01;;;;;;;7.07;6.57;;;;;;;16.45;97.64;99609.25;5015829;28;20579;-51
2022/04/25 11:31:33;;;;;;;7.20;6.70;;;;;;;16.47;95.85;99623.09;5013290;28;20290;-52
2022/04/25 11:34:04;;;;;;;6.93;6.43;;;;;;;16.43;95.42;99611.91;5019195;28;20982;-52
2022/04/25 11:36:31;;;;;;;6.40;5.90;;;;;;;16.46;95.01;99621.41;5013481;28;20188;-52
2022/04/25 11:41:44;;;;;;;5.40;5.00;;;;;;;16.46;94.14;99614.41;5015272;28;20195;-51
2022/04/25 11:44:09;;;;;;;5.90;5.37;;;;;;;16.48;93.67;99618.72;5018396;28;20261;-52
2022/04/25 11:46:37;;;;;;;5.30;4.90;;;;;;;16.67;93.78;99621.34;5014315;28;20196;-52
2022/04/25 11:49:04;;;;;;;5.33;4.83;;;;;;;17.00;93.63;99626.00;5017779;28;20199;-52
2022/04/25 11:51:33;;;;;;;4.97;4.67;;;;;;;17.34;93.34;99624.41;5019460;28;20241;-52
2022/04/25 11:54:04;;;;;;;4.80;4.40;;;;;;;17.73;90.90;99630.41;5014701;28;20247;-52